Time;durP1;ratioP1;P1;durP2;ratioP2;P2;SDS_P1;SDS_P2;PMS_P1;PMS_P2;Temp;Humidity;BMP_temperature;BMP_pressure;BME280_temperature;BME280_humidity;BME280_pressure;Samples;Min_cycle;Max_cycle;Signal;HPM_P1;HPM_P2
2023/03/02 00:01:09;;;;;;;23.42;17.17;;;4.50;18.40;;;;;;5059177;28;20241;-75
2023/03/02 00:03:39;;;;;;;19.30;15.88;;;4.50;19.10;;;;;;5056782;28;20227;-76
2023/03/02 00:06:09;;;;;;;21.88;16.92;;;4.50;20.20;;;;;;5054211;28;20229;-76
2023/03/02 00:08:39;;;;;;;21.80;17.02;;;4.60;21.00;;;;;;5057849;28;20768;-76
2023/03/02 00:11:07;;;;;;;22.90;17.00;;;4.50;20.30;;;;;;5057192;28;20201;-76
2023/03/02 00:13:36;;;;;;;21.15;18.45;;;4.50;21.40;;;;;;5056700;28;20509;-77
2023/03/02 00:16:05;;;;;;;21.27;17.88;;;4.50;21.20;;;;;;5059773;28;20878;-77
2023/03/02 00:18:33;;;;;;;23.25;17.48;;;4.50;22.00;;;;;;5061990;28;20223;-77
2023/03/02 00:21:01;;;;;;;58.65;28.25;;;4.50;21.50;;;;;;5057546;28;20882;-75
2023/03/02 00:23:31;;;;;;;102.38;45.15;;;4.30;21.40;;;;;;5058596;28;20675;-75
2023/03/02 00:26:00;;;;;;;80.00;34.47;;;4.30;22.50;;;;;;5057585;28;20205;-76
2023/03/02 00:28:29;;;;;;;47.17;28.30;;;4.30;23.30;;;;;;5056146;28;20215;-77
2023/03/02 00:30:57;;;;;;;33.70;23.17;;;4.30;24.00;;;;;;5059997;28;20203;-77
2023/03/02 00:33:25;;;;;;;26.63;19.50;;;4.30;24.60;;;;;;5057748;28;20705;-77
2023/03/02 00:35:53;;;;;;;24.63;20.33;;;4.20;25.30;;;;;;5058367;28;20350;-78
2023/03/02 00:38:22;;;;;;;25.02;18.02;;;4.30;26.90;;;;;;5057296;28;20193;-78
2023/03/02 00:40:51;;;;;;;20.05;17.15;;;4.20;26.80;;;;;;5056927;28;20228;-78
2023/03/02 00:43:21;;;;;;;24.15;17.88;;;4.20;26.20;;;;;;5057298;28;20236;-77
2023/03/02 00:45:49;;;;;;;24.25;17.52;;;4.20;27.30;;;;;;5058813;28;20223;-76
2023/03/02 00:48:17;;;;;;;19.55;16.70;;;4.20;27.60;;;;;;5057405;28;20223;-76
2023/03/02 00:50:46;;;;;;;23.83;16.95;;;4.20;28.40;;;;;;5061672;28;20207;-77
2023/03/02 00:53:14;;;;;;;21.73;17.30;;;4.30;28.50;;;;;;5059996;28;20830;-80
2023/03/02 00:55:42;;;;;;;20.98;17.70;;;4.20;29.40;;;;;;5059123;28;20240;-78
2023/03/02 00:58:11;;;;;;;22.73;17.17;;;4.20;29.90;;;;;;5059920;28;20200;-77
2023/03/02 01:00:39;;;;;;;22.58;16.98;;;4.20;30.10;;;;;;5059533;28;20219;-78
2023/03/02 01:03:07;;;;;;;21.00;18.02;;;4.20;30.60;;;;;;5057419;28;20243;-76
2023/03/02 01:05:36;;;;;;;21.70;18.48;;;4.20;30.80;;;;;;5040158;28;20241;-74
2023/03/02 01:08:05;;;;;;;23.73;17.60;;;4.20;31.50;;;;;;5058105;28;20215;-77
2023/03/02 01:10:33;;;;;;;21.83;17.33;;;4.20;32.40;;;;;;5057291;28;20204;-77
2023/03/02 01:13:01;;;;;;;20.90;17.60;;;4.20;45.90;;;;;;5060162;28;20272;-77
2023/03/02 01:15:31;;;;;;;19.25;16.63;;;4.10;32.20;;;;;;5055635;28;20227;-76
2023/03/02 01:18:00;;;;;;;25.80;17.77;;;4.20;32.50;;;;;;5058806;28;20620;-76
2023/03/02 01:20:28;;;;;;;21.73;17.13;;;4.10;34.70;;;;;;5057731;28;20205;-76
2023/03/02 01:22:57;;;;;;;21.98;17.70;;;4.10;34.60;;;;;;5058815;28;20342;-77
2023/03/02 01:25:25;;;;;;;23.60;17.02;;;4.10;36.50;;;;;;5040383;28;20327;-76
2023/03/02 01:27:53;;;;;;;20.85;17.83;;;4.00;36.30;;;;;;5047461;28;20250;-78
2023/03/02 01:30:22;;;;;;;21.50;16.83;;;4.10;36.70;;;;;;5060383;28;20249;-76
2023/03/02 01:32:51;;;;;;;22.23;17.90;;;4.00;36.50;;;;;;5061197;28;20222;-76
2023/03/02 01:35:19;;;;;;;22.03;17.97;;;4.00;36.80;;;;;;5052793;28;20213;-76
2023/03/02 01:37:47;;;;;;;29.33;18.30;;;4.00;52.10;;;;;;5062257;28;20457;-77
2023/03/02 01:40:15;;;;;;;20.40;17.20;;;4.00;39.40;;;;;;5058232;28;20583;-77
2023/03/02 01:42:52;;;;;;;18.90;16.67;;;4.00;39.80;;;;;;5040176;28;20203;-76
2023/03/02 01:45:47;;;;;;;21.20;17.10;;;4.00;41.40;;;;;;5054951;28;20227;-76
2023/03/02 01:48:22;;;;;;;19.80;17.05;;;4.00;41.30;;;;;;5058149;28;20232;-76
2023/03/02 01:50:51;;;;;;;21.88;18.27;;;4.00;41.20;;;;;;5060508;28;20219;-75
2023/03/02 01:53:20;;;;;;;24.02;17.67;;;3.90;42.70;;;;;;5058952;28;20239;-74
2023/03/02 01:55:49;;;;;;;22.27;18.02;;;3.90;44.30;;;;;;5055829;28;20384;-76
2023/03/02 01:58:17;;;;;;;20.52;17.58;;;4.00;45.60;;;;;;5059311;28;20191;-76
2023/03/02 02:00:46;;;;;;;21.67;18.20;;;4.00;46.30;;;;;;5053858;28;20228;-79
2023/03/02 02:03:20;;;;;;;21.83;18.30;;;4.00;49.30;;;;;;5063097;28;20231;-75
2023/03/02 02:05:57;;;;;;;22.55;18.23;;;3.90;47.70;;;;;;5061917;28;20727;-75
2023/03/02 02:08:25;;;;;;;22.90;18.02;;;3.90;48.80;;;;;;5063617;28;20203;-75
2023/03/02 02:10:55;;;;;;;25.50;19.40;;;4.00;49.90;;;;;;5076286;28;20203;-75
2023/03/02 02:13:23;;;;;;;22.08;18.10;;;3.90;50.00;;;;;;5059583;28;20278;-76
2023/03/02 02:15:51;;;;;;;25.55;20.58;;;3.90;50.70;;;;;;5060113;28;20220;-76
2023/03/02 02:18:21;;;;;;;18.85;16.13;;;3.80;48.70;;;;;;5059350;28;20211;-76
2023/03/02 02:20:51;;;;;;;23.75;19.80;;;3.90;50.90;;;;;;5057242;28;20216;-76
2023/03/02 02:23:32;;;;;;;20.70;18.50;;;3.80;52.60;;;;;;5061893;28;20251;-76
2023/03/02 02:26:12;;;;;;;24.65;18.88;;;3.80;52.10;;;;;;5061907;28;20215;-76
2023/03/02 02:28:46;;;;;;;21.95;17.27;;;3.90;53.50;;;;;;5064077;28;20582;-77
2023/03/02 02:31:18;;;;;;;22.27;18.92;;;3.80;54.10;;;;;;5060279;28;20203;-74
2023/03/02 02:33:51;;;;;;;22.33;18.00;;;3.70;53.70;;;;;;5059035;28;20192;-76
2023/03/02 02:36:24;;;;;;;22.42;18.73;;;3.70;53.70;;;;;;5060915;28;20311;-75
2023/03/02 02:38:55;;;;;;;23.40;18.30;;;3.70;55.60;;;;;;5061880;28;20236;-76
2023/03/02 02:41:28;;;;;;;27.20;17.80;;;3.70;56.40;;;;;;5059303;28;20199;-76
2023/03/02 02:43:56;;;;;;;22.20;18.63;;;3.70;58.10;;;;;;5059846;28;20640;-76
2023/03/02 02:46:25;;;;;;;24.58;18.60;;;3.70;57.80;;;;;;5062257;28;20587;-77
2023/03/02 02:48:53;;;;;;;25.73;18.67;;;3.70;60.80;;;;;;5060159;28;20226;-77
2023/03/02 02:51:26;;;;;;;25.55;19.80;;;3.80;62.00;;;;;;5060998;28;20201;-76
2023/03/02 02:53:57;;;;;;;23.15;18.92;;;3.70;60.50;;;;;;5043538;28;20757;-77
2023/03/02 02:56:30;;;;;;;24.80;17.95;;;3.70;61.40;;;;;;5061170;28;20230;-76
2023/03/02 02:59:03;;;;;;;26.02;18.15;;;3.70;64.10;;;;;;5060060;28;20193;-79
2023/03/02 03:01:33;;;;;;;27.65;18.30;;;3.80;65.70;;;;;;5059807;28;20199;-75
2023/03/02 03:04:04;;;;;;;28.08;19.50;;;3.80;65.40;;;;;;5059970;28;20618;-75
2023/03/02 03:06:40;;;;;;;24.55;19.98;;;3.70;66.80;;;;;;5064308;28;20223;-77
2023/03/02 03:09:10;;;;;;;22.85;18.60;;;3.80;68.30;;;;;;5064175;28;20506;-76
2023/03/02 03:11:41;;;;;;;26.15;19.27;;;3.80;69.40;;;;;;5061998;28;20227;-75
2023/03/02 03:14:12;;;;;;;26.58;18.90;;;3.80;69.50;;;;;;5059094;28;20224;-77
2023/03/02 03:16:43;;;;;;;24.10;18.30;;;3.80;69.90;;;;;;5057683;28;20220;-76
2023/03/02 03:19:17;;;;;;;23.58;18.65;;;3.70;69.80;;;;;;5061147;28;20195;-77
2023/03/02 03:21:45;;;;;;;27.42;20.08;;;3.70;69.40;;;;;;5059130;28;20195;-74
2023/03/02 03:24:14;;;;;;;24.08;18.23;;;3.70;73.00;;;;;;5059566;28;20191;-76
2023/03/02 03:26:43;;;;;;;22.42;17.73;;;3.70;72.00;;;;;;5061331;28;20219;-74
2023/03/02 03:29:12;;;;;;;22.98;18.83;;;3.70;75.80;;;;;;5058955;28;20862;-76
2023/03/02 03:31:41;;;;;;;22.58;18.05;;;3.70;75.80;;;;;;5060896;28;20202;-76
2023/03/02 03:34:09;;;;;;;25.00;18.42;;;3.80;76.90;;;;;;5058660;28;20256;-76
2023/03/02 03:36:38;;;;;;;24.10;18.65;;;3.80;91.20;;;;;;5058677;28;20339;-76
2023/03/02 03:39:06;;;;;;;26.17;18.65;;;3.70;74.40;;;;;;5061523;28;20269;-76
2023/03/02 03:41:34;;;;;;;24.63;18.17;;;3.70;75.00;;;;;;5061470;28;20256;-77
2023/03/02 03:44:04;;;;;;;25.52;19.50;;;3.70;76.00;;;;;;5059139;28;20206;-76
2023/03/02 03:46:32;;;;;;;23.08;18.10;;;3.60;74.80;;;;;;5057491;28;20221;-75
2023/03/02 03:49:02;;;;;;;23.25;18.88;;;3.70;77.10;;;;;;5061088;28;20202;-75
2023/03/02 03:51:34;;;;;;;24.35;18.70;;;3.70;77.80;;;;;;5056740;28;20252;-75
2023/03/02 03:54:03;;;;;;;23.30;18.02;;;3.60;78.70;;;;;;5060573;28;20202;-75
2023/03/02 03:56:33;;;;;;;24.92;19.17;;;3.60;81.80;;;;;;5060434;28;20218;-77
2023/03/02 03:59:07;;;;;;;23.52;19.45;;;3.50;80.50;;;;;;5055646;28;20192;-77
2023/03/02 04:01:37;;;;;;;23.30;20.08;;;3.50;82.20;;;;;;5059216;28;20205;-76
2023/03/02 04:04:08;;;;;;;22.48;17.83;;;3.50;83.40;;;;;;5059810;28;20213;-76
2023/03/02 04:06:36;;;;;;;24.85;17.75;;;3.40;86.50;;;;;;5054814;28;20215;-74
2023/03/02 04:09:05;;;;;;;25.13;19.98;;;3.50;86.80;;;;;;5058750;28;20231;-76
2023/03/02 04:11:35;;;;;;;26.27;19.45;;;3.40;88.70;;;;;;5059407;28;20220;-75
2023/03/02 04:14:05;;;;;;;23.77;17.23;;;3.40;90.80;;;;;;5059964;28;20208;-79
2023/03/02 04:16:34;;;;;;;24.73;18.70;;;3.40;88.70;;;;;;5057100;28;20233;-76
2023/03/02 04:19:08;;;;;;;23.63;17.55;;;3.50;92.80;;;;;;5074848;28;20198;-76
2023/03/02 04:21:36;;;;;;;27.58;19.30;;;3.50;92.80;;;;;;5057233;28;20540;-76
2023/03/02 04:24:06;;;;;;;69.97;33.35;;;3.50;89.60;;;;;;5060125;28;20276;-77
2023/03/02 04:26:34;;;;;;;84.88;40.13;;;3.30;90.80;;;;;;5057613;28;20222;-77
2023/03/02 04:29:04;;;;;;;52.70;27.63;;;3.40;93.30;;;;;;5059324;28;20225;-76
2023/03/02 04:31:33;;;;;;;63.63;34.25;;;3.40;93.10;;;;;;5041766;28;20708;-75
2023/03/02 04:34:03;;;;;;;54.58;26.67;;;3.40;92.80;;;;;;5058538;28;20226;-72
2023/03/02 04:36:31;;;;;;;47.80;26.40;;;3.40;92.80;;;;;;5057628;28;20216;-76
2023/03/02 04:39:00;;;;;;;30.88;22.13;;;3.30;93.30;;;;;;5057063;28;20790;-78
2023/03/02 04:41:28;;;;;;;36.28;23.27;;;3.30;93.30;;;;;;5057962;28;20833;-79
2023/03/02 04:43:56;;;;;;;31.08;20.50;;;3.30;93.40;;;;;;5059700;28;20206;-77
2023/03/02 04:46:27;;;;;;;27.73;19.50;;;3.30;93.30;;;;;;5058833;28;20230;-75
2023/03/02 04:48:55;;;;;;;28.88;21.15;;;3.30;93.30;;;;;;5057653;28;20237;-79
2023/03/02 04:51:27;;;;;;;24.73;19.65;;;3.30;93.80;;;;;;5056703;28;20215;-76
2023/03/02 04:53:57;;;;;;;26.52;18.65;;;3.20;97.90;;;;;;5060884;28;20206;-78
2023/03/02 04:56:25;;;;;;;25.17;19.55;;;3.30;99.10;;;;;;5033596;28;20249;-76
2023/03/02 04:58:54;;;;;;;27.90;19.95;;;3.30;99.80;;;;;;5062846;28;20877;-75
2023/03/02 05:01:23;;;;;;;27.85;20.83;;;3.30;99.80;;;;;;5056913;28;20201;-76
2023/03/02 05:03:53;;;;;;;30.85;20.50;;;3.30;99.70;;;;;;5059148;28;20211;-77
2023/03/02 05:06:23;;;;;;;24.67;19.33;;;3.30;99.90;;;;;;5061854;28;20651;-77
2023/03/02 05:08:51;;;;;;;25.90;18.95;;;3.30;99.90;;;;;;5057281;28;20196;-78
2023/03/02 05:11:28;;;;;;;27.85;20.75;;;3.30;99.90;;;;;;5055496;28;20207;-74
2023/03/02 05:13:59;;;;;;;27.10;20.65;;;3.30;99.90;;;;;;5059356;28;20222;-73
2023/03/02 05:16:30;;;;;;;27.08;19.25;;;3.30;99.90;;;;;;5056505;28;20212;-76
2023/03/02 05:19:02;;;;;;;25.95;19.85;;;3.30;99.90;;;;;;5056404;28;20272;-76
2023/03/02 05:21:30;;;;;;;26.95;19.33;;;3.30;99.90;;;;;;5058264;28;20245;-76
2023/03/02 05:23:58;;;;;;;25.48;19.25;;;3.30;99.90;;;;;;5061019;28;20206;-76
2023/03/02 05:26:26;;;;;;;26.77;20.70;;;3.30;99.90;;;;;;5059314;28;20633;-74
2023/03/02 05:28:55;;;;;;;25.90;18.25;;;3.30;99.90;;;;;;5058473;28;20207;-75
2023/03/02 05:31:27;;;;;;;29.50;19.90;;;3.30;99.90;;;;;;5073943;28;20247;-77
2023/03/02 05:33:56;;;;;;;30.30;19.80;;;3.30;99.90;;;;;;5062150;28;20234;-75
2023/03/02 05:36:25;;;;;;;27.77;20.80;;;3.30;99.90;;;;;;5037423;28;20316;-77
2023/03/02 05:38:54;;;;;;;29.42;21.15;;;3.30;99.90;;;;;;5064548;28;20195;-78
2023/03/02 05:41:22;;;;;;;24.08;19.13;;;3.30;99.90;;;;;;5080977;28;20735;-77
2023/03/02 05:43:50;;;;;;;29.80;20.73;;;3.30;99.90;;;;;;5062288;28;20253;-76
2023/03/02 05:46:19;;;;;;;29.33;20.67;;;3.30;99.90;;;;;;5067233;28;20223;-75
2023/03/02 05:48:49;;;;;;;23.42;18.65;;;3.30;99.90;;;;;;5063063;28;20524;-75
2023/03/02 05:51:17;;;;;;;27.70;19.95;;;3.30;99.90;;;;;;5062522;28;20769;-76
2023/03/02 05:53:46;;;;;;;25.88;20.15;;;3.40;99.90;;;;;;5063282;28;20200;-77
2023/03/02 05:56:15;;;;;;;29.25;21.38;;;3.40;99.90;;;;;;5072975;28;20250;-73
2023/03/02 05:58:46;;;;;;;25.30;19.85;;;3.40;99.90;;;;;;5064082;28;20656;-75
2023/03/02 06:01:14;;;;;;;25.75;19.30;;;3.50;99.90;;;;;;5061921;28;20192;-73
2023/03/02 06:03:43;;;;;;;27.27;19.70;;;3.50;99.90;;;;;;5064906;28;20814;-77
2023/03/02 06:06:12;;;;;;;27.90;19.83;;;3.50;99.90;;;;;;5059461;28;20231;-74
2023/03/02 06:08:41;;;;;;;28.50;19.27;;;3.60;99.90;;;;;;5061774;28;20199;-76
2023/03/02 06:11:11;;;;;;;25.92;20.83;;;3.50;99.90;;;;;;5058835;28;20252;-75
2023/03/02 06:13:40;;;;;;;26.27;19.95;;;3.60;99.90;;;;;;5063676;28;20208;-72
2023/03/02 06:16:09;;;;;;;26.50;19.40;;;3.50;99.90;;;;;;5059176;28;20230;-76
2023/03/02 06:18:37;;;;;;;25.67;20.33;;;3.50;99.90;;;;;;5059938;28;20206;-73
2023/03/02 06:21:09;;;;;;;28.63;19.33;;;3.60;99.90;;;;;;5060234;28;20272;-75
2023/03/02 06:23:37;;;;;;;31.30;21.13;;;3.60;99.90;;;;;;5061963;28;20800;-75
2023/03/02 06:26:08;;;;;;;27.42;20.45;;;3.60;99.90;;;;;;5062059;28;20277;-76
2023/03/02 06:28:38;;;;;;;28.60;20.88;;;3.70;99.90;;;;;;5061364;28;20260;-73
2023/03/02 06:31:20;;;;;;;30.65;20.88;;;3.70;99.90;;;;;;5056195;28;20246;-77
2023/03/02 06:33:49;;;;;;;24.63;19.45;;;3.80;99.90;;;;;;5058884;28;20304;-71
2023/03/02 06:36:17;;;;;;;25.55;19.35;;;3.80;99.90;;;;;;5069448;28;20728;-74
2023/03/02 06:38:45;;;;;;;26.88;20.30;;;3.90;99.90;;;;;;5058825;28;20705;-75
2023/03/02 06:41:13;;;;;;;28.33;20.77;;;3.80;99.90;;;;;;5062376;28;20552;-74
2023/03/02 06:43:43;;;;;;;28.27;20.08;;;3.80;99.90;;;;;;5059482;28;20196;-77
2023/03/02 06:46:12;;;;;;;28.70;20.17;;;3.80;99.90;;;;;;5057474;28;20242;-76
2023/03/02 06:48:40;;;;;;;25.40;19.52;;;3.90;99.90;;;;;;5043030;28;20200;-76
2023/03/02 06:51:08;;;;;;;27.15;21.15;;;3.80;99.90;;;;;;5058589;28;20249;-77
2023/03/02 06:53:37;;;;;;;27.65;19.10;;;3.80;99.90;;;;;;5057070;28;20226;-74
2023/03/02 06:56:06;;;;;;;21.98;19.55;;;3.90;99.90;;;;;;5058435;28;20214;-76
2023/03/02 06:58:34;;;;;;;27.23;20.30;;;4.00;99.90;;;;;;5042991;28;20202;-76
2023/03/02 07:01:04;;;;;;;29.42;19.77;;;4.00;99.90;;;;;;5055712;28;20207;-75
2023/03/02 07:03:33;;;;;;;29.50;20.73;;;3.90;99.90;;;;;;5058450;28;20204;-77
2023/03/02 07:06:01;;;;;;;25.60;19.58;;;4.00;99.90;;;;;;5057079;28;20229;-73
2023/03/02 07:08:29;;;;;;;29.88;19.98;;;4.00;99.90;;;;;;5058513;28;20615;-73
2023/03/02 07:10:57;;;;;;;24.85;18.30;;;4.00;99.90;;;;;;5059473;28;20238;-77
2023/03/02 07:13:26;;;;;;;24.13;18.50;;;4.00;99.90;;;;;;5052233;28;20235;-75
2023/03/02 07:15:54;;;;;;;29.80;20.55;;;4.00;99.90;;;;;;5055576;28;20221;-75
2023/03/02 07:18:23;;;;;;;23.58;20.05;;;4.10;99.90;;;;;;5058796;28;20274;-75
2023/03/02 07:20:51;;;;;;;25.52;20.33;;;4.10;99.90;;;;;;5059911;28;20231;-74
2023/03/02 07:23:20;;;;;;;40.35;23.70;;;4.10;99.90;;;;;;5060107;28;20189;-77
2023/03/02 07:25:48;;;;;;;31.25;22.23;;;4.10;99.90;;;;;;5057769;28;20238;-74
2023/03/02 07:28:16;;;;;;;26.98;18.90;;;4.10;99.90;;;;;;5053449;28;20193;-78
2023/03/02 07:30:44;;;;;;;26.50;21.02;;;4.10;99.90;;;;;;5052457;28;20210;-78
2023/03/02 07:33:13;;;;;;;29.83;23.93;;;4.10;99.90;;;;;;5054179;28;20287;-76
2023/03/02 07:35:42;;;;;;;28.20;21.17;;;4.20;99.90;;;;;;5058567;28;20510;-76
2023/03/02 07:38:10;;;;;;;26.55;19.98;;;4.20;99.90;;;;;;5058647;28;21139;-74
2023/03/02 07:40:40;;;;;;;26.40;19.48;;;4.20;99.90;;;;;;5057407;28;20212;-74
2023/03/02 07:43:09;;;;;;;25.75;19.60;;;4.10;99.90;;;;;;5056781;28;20193;-74
2023/03/02 07:45:38;;;;;;;25.92;20.88;;;4.20;99.90;;;;;;5055072;28;20232;-77
2023/03/02 07:48:06;;;;;;;26.88;20.80;;;4.20;99.90;;;;;;5058781;28;20217;-75
2023/03/02 07:50:34;;;;;;;24.30;20.08;;;4.30;99.90;;;;;;5055240;28;20207;-74
2023/03/02 07:53:04;;;;;;;25.23;20.63;;;4.30;99.90;;;;;;5055337;28;20266;-74
2023/03/02 07:55:32;;;;;;;25.70;19.33;;;4.30;99.90;;;;;;5072532;28;20532;-75
2023/03/02 07:58:00;;;;;;;31.88;20.20;;;4.30;99.90;;;;;;5074217;28;20680;-77
2023/03/02 08:00:28;;;;;;;29.20;19.88;;;4.30;99.90;;;;;;5053485;28;20228;-75
2023/03/02 08:02:56;;;;;;;24.63;19.98;;;4.30;99.90;;;;;;5056358;28;22120;-76
2023/03/02 08:05:25;;;;;;;26.98;19.83;;;4.30;99.90;;;;;;5056311;28;20281;-75
2023/03/02 08:07:53;;;;;;;25.50;20.65;;;4.30;99.90;;;;;;5054404;28;20201;-78
2023/03/02 08:10:22;;;;;;;25.20;19.75;;;4.40;99.90;;;;;;5050591;28;20212;-74
2023/03/02 08:12:51;;;;;;;24.73;19.50;;;4.40;99.90;;;;;;5057633;28;20234;-76
2023/03/02 08:15:19;;;;;;;24.85;19.60;;;4.40;99.90;;;;;;5055656;28;20254;-75
2023/03/02 08:17:47;;;;;;;26.52;18.83;;;4.40;99.90;;;;;;5054981;28;20688;-76
2023/03/02 08:20:16;;;;;;;25.17;20.35;;;4.50;99.90;;;;;;5059811;28;20209;-74
2023/03/02 08:22:44;;;;;;;26.77;20.25;;;4.50;99.90;;;;;;5053007;28;20197;-76
2023/03/02 08:25:12;;;;;;;27.45;20.40;;;4.50;99.90;;;;;;5041866;28;20279;-77
2023/03/02 08:27:41;;;;;;;23.80;19.88;;;4.50;99.90;;;;;;5053221;28;20195;-79
2023/03/02 08:30:11;;;;;;;23.55;20.20;;;4.60;99.90;;;;;;5056832;28;20202;-77
2023/03/02 08:32:39;;;;;;;25.55;19.98;;;4.60;99.90;;;;;;5054795;28;20704;-75
2023/03/02 08:35:09;;;;;;;27.85;21.48;;;4.60;99.90;;;;;;5054622;28;20242;-74
2023/03/02 08:37:37;;;;;;;25.17;21.13;;;4.60;99.90;;;;;;5060643;28;20270;-76
2023/03/02 08:40:06;;;;;;;28.98;20.92;;;4.60;99.90;;;;;;5058155;28;20212;-76
2023/03/02 08:42:34;;;;;;;23.02;19.30;;;4.70;99.90;;;;;;5053249;28;20200;-77
2023/03/02 08:45:04;;;;;;;26.65;19.52;;;4.70;99.90;;;;;;5052660;28;20263;-74
2023/03/02 08:47:32;;;;;;;25.42;19.15;;;4.70;99.90;;;;;;5059602;28;20192;-74
2023/03/02 08:50:01;;;;;;;24.13;18.30;;;4.80;99.90;;;;;;5039224;28;20207;-76
2023/03/02 08:52:29;;;;;;;22.30;18.58;;;4.70;99.90;;;;;;5057971;28;20778;-78
2023/03/02 08:54:57;;;;;;;26.52;20.48;;;4.80;99.90;;;;;;5054310;28;20487;-75
2023/03/02 08:57:25;;;;;;;23.60;18.95;;;4.80;99.90;;;;;;5058186;28;20194;-76
2023/03/02 08:59:53;;;;;;;24.42;19.25;;;4.90;99.90;;;;;;5073186;28;20200;-77
2023/03/02 09:02:23;;;;;;;23.15;18.60;;;5.00;99.90;;;;;;5057877;28;20220;-77
2023/03/02 09:04:51;;;;;;;22.88;17.75;;;5.10;99.90;;;;;;5057049;28;20207;-78
2023/03/02 09:07:19;;;;;;;22.95;19.13;;;5.20;99.90;;;;;;5056058;28;20242;-77
2023/03/02 09:09:47;;;;;;;24.98;18.65;;;5.10;99.90;;;;;;5054560;28;20211;-76
2023/03/02 09:12:15;;;;;;;25.63;19.02;;;5.20;99.90;;;;;;5042417;28;20200;-76
2023/03/02 09:14:44;;;;;;;25.13;19.45;;;5.20;99.90;;;;;;5064646;28;20209;-75
2023/03/02 09:17:14;;;;;;;21.83;19.53;;;5.30;99.90;;;;;;5059535;28;20278;-74
2023/03/02 09:19:43;;;;;;;24.45;18.33;;;5.40;99.90;;;;;;5080842;28;20488;-76
2023/03/02 09:22:12;;;;;;;24.83;19.03;;;5.50;99.90;;;;;;5062745;28;20212;-76
2023/03/02 09:24:40;;;;;;;22.13;17.48;;;5.60;99.90;;;;;;5061238;28;20450;-77
2023/03/02 09:27:08;;;;;;;25.67;20.07;;;5.60;99.90;;;;;;5058394;28;20204;-77
2023/03/02 09:29:36;;;;;;;23.33;18.38;;;5.60;99.90;;;;;;5062174;28;20458;-75
2023/03/02 09:32:05;;;;;;;26.33;19.40;;;5.70;99.90;;;;;;5058764;28;20227;-74
2023/03/02 09:34:33;;;;;;;22.77;19.20;;;5.70;99.90;;;;;;5061732;28;20736;-73
2023/03/02 09:37:03;;;;;;;24.47;19.10;;;5.80;99.90;;;;;;5063422;28;20528;-75
2023/03/02 09:39:31;;;;;;;24.58;19.10;;;6.00;99.90;;;;;;5061185;28;20559;-75
2023/03/02 09:42:18;;;;;;;22.27;17.67;;;6.10;99.90;;;;;;5062033;28;20201;-74
2023/03/02 09:45:03;;;;;;;22.37;17.73;;;6.20;99.90;;;;;;5060968;28;20501;-78
2023/03/02 09:47:38;;;;;;;29.27;20.00;;;6.20;99.90;;;;;;5058324;28;20866;-76
2023/03/02 09:50:21;;;;;;;25.33;17.87;;;6.10;99.90;;;;;;5061758;28;20439;-76
2023/03/02 09:53:04;;;;;;;25.27;18.87;;;6.10;99.90;;;;;;5058998;28;20465;-75
2023/03/02 09:55:36;;;;;;;24.63;17.80;;;6.10;99.90;;;;;;5057757;28;21018;-74
2023/03/02 09:58:06;;;;;;;24.13;18.80;;;6.10;99.90;;;;;;5054609;28;20450;-76
2023/03/02 10:00:39;;;;;;;25.30;18.43;;;6.20;99.90;;;;;;5054971;28;20473;-75
2023/03/02 10:03:12;;;;;;;31.50;17.37;;;6.20;99.90;;;;;;5060730;28;20466;-76
2023/03/02 10:05:46;;;;;;;24.03;19.60;;;6.10;99.90;;;;;;5060355;28;20470;-76
2023/03/02 10:08:19;;;;;;;23.63;18.30;;;6.00;99.90;;;;;;5057250;28;20504;-76
2023/03/02 10:10:55;;;;;;;24.53;17.90;;;6.00;99.90;;;;;;5059044;28;20455;-79
2023/03/02 10:13:26;;;;;;;22.43;18.10;;;6.00;99.90;;;;;;5058883;28;21136;-79
2023/03/02 10:16:12;;;;;;;24.50;18.87;;;6.10;99.90;;;;;;5063956;28;20480;-76
2023/03/02 10:18:46;;;;;;;23.20;19.77;;;6.10;99.90;;;;;;5057231;28;20537;-74
2023/03/02 10:21:22;;;;;;;21.73;18.17;;;6.20;99.90;;;;;;5058485;28;20563;-77
2023/03/02 10:23:56;;;;;;;25.67;19.73;;;6.20;99.90;;;;;;5057075;28;20700;-76
2023/03/02 10:26:38;;;;;;;24.80;19.00;;;6.20;99.90;;;;;;5056708;28;20541;-76
2023/03/02 10:29:22;;;;;;;23.47;19.07;;;6.30;99.90;;;;;;5060661;28;20446;-76
2023/03/02 10:31:57;;;;;;;24.02;18.58;;;6.30;99.90;;;;;;5056989;28;20890;-75
2023/03/02 10:34:29;;;;;;;22.27;18.13;;;6.30;99.90;;;;;;5059279;28;20289;-76
2023/03/02 10:36:58;;;;;;;24.10;19.10;;;6.40;99.90;;;;;;5052206;28;20486;-75
2023/03/02 10:39:27;;;;;;;22.63;18.20;;;6.30;99.90;;;;;;5055804;28;20450;-78
2023/03/02 10:42:02;;;;;;;20.80;17.67;;;6.40;99.90;;;;;;5058213;28;20468;-75
2023/03/02 10:44:35;;;;;;;26.37;18.33;;;6.60;99.90;;;;;;5056533;28;20556;-75
2023/03/02 10:47:04;;;;;;;22.23;19.13;;;6.60;99.90;;;;;;5054658;28;20455;-76
2023/03/02 10:49:34;;;;;;;25.83;17.17;;;6.60;99.90;;;;;;5041139;28;20522;-76
2023/03/02 10:52:04;;;;;;;27.73;19.60;;;6.60;99.90;;;;;;5060040;28;21082;-76
2023/03/02 10:54:35;;;;;;;23.47;20.17;;;6.60;99.90;;;;;;5060324;28;20479;-76
2023/03/02 10:57:15;;;;;;;24.17;18.20;;;6.70;99.90;;;;;;5059699;28;20470;-78
2023/03/02 10:59:45;;;;;;;34.13;21.70;;;6.80;99.90;;;;;;5061370;28;20464;-75
2023/03/02 11:02:17;;;;;;;23.13;19.40;;;6.90;99.90;;;;;;5060151;28;20475;-76
2023/03/02 11:04:45;;;;;;;25.37;19.60;;;6.90;99.90;;;;;;5057643;28;20538;-76
2023/03/02 11:07:17;;;;;;;23.43;20.87;;;6.80;99.90;;;;;;5059148;28;20582;-77
2023/03/02 11:09:58;;;;;;;29.33;21.50;;;6.90;99.90;;;;;;5058692;28;20456;-74
2023/03/02 11:12:26;;;;;;;24.17;21.33;;;6.90;99.90;;;;;;5058411;28;20457;-75
2023/03/02 11:15:18;;;;;;;31.50;21.50;;;7.00;99.90;;;;;;5058999;28;20613;-76
2023/03/02 11:17:50;;;;;;;26.10;20.50;;;7.00;99.90;;;;;;5054044;28;20459;-76
2023/03/02 11:20:24;;;;;;;27.37;21.07;;;6.90;99.90;;;;;;5058882;28;20456;-76
2023/03/02 11:23:01;;;;;;;22.07;19.77;;;6.90;99.90;;;;;;5055360;28;20462;-76
2023/03/02 11:25:36;;;;;;;27.10;21.63;;;6.90;99.90;;;;;;5054444;28;20553;-75
2023/03/02 11:28:10;;;;;;;27.50;20.30;;;6.90;99.90;;;;;;5055508;28;20450;-77
2023/03/02 11:30:46;;;;;;;31.00;22.20;;;7.00;99.90;;;;;;5056772;28;20461;-76
2023/03/02 11:33:20;;;;;;;35.90;20.80;;;7.10;99.90;;;;;;5058738;28;20446;-76
2023/03/02 11:35:54;;;;;;;27.43;21.27;;;7.20;99.90;;;;;;5052405;28;20488;-76
2023/03/02 11:38:26;;;;;;;24.27;20.23;;;7.30;99.90;;;;;;5055990;28;20467;-75
2023/03/02 11:41:00;;;;;;;26.47;21.00;;;7.50;99.90;;;;;;5054584;28;20482;-77
2023/03/02 11:43:28;;;;;;;23.33;19.40;;;7.40;99.90;;;;;;5057071;28;20456;-77
2023/03/02 11:45:59;;;;;;;30.13;21.33;;;7.50;99.90;;;;;;5055490;28;20572;-75
2023/03/02 11:48:32;;;;;;;28.77;21.77;;;7.60;99.90;;;;;;5054460;28;20451;-74
2023/03/02 11:51:03;;;;;;;31.23;21.63;;;7.80;99.90;;;;;;5054543;28;20458;-76
2023/03/02 11:53:38;;;;;;;28.60;21.80;;;8.00;99.90;;;;;;5052125;28;20470;-74
2023/03/02 11:56:08;;;;;;;22.87;20.07;;;8.10;99.90;;;;;;5054002;28;20511;-76
2023/03/02 11:58:38;;;;;;;27.23;21.67;;;8.20;99.90;;;;;;5056664;28;20443;-76
2023/03/02 12:01:09;;;;;;;26.77;20.63;;;8.40;99.90;;;;;;5061686;28;20445;-77
2023/03/02 12:03:41;;;;;;;26.33;20.57;;;8.50;99.90;;;;;;5060249;28;20944;-77
2023/03/02 12:06:27;;;;;;;27.17;22.50;;;8.60;99.90;;;;;;5059025;28;20463;-77
2023/03/02 12:09:09;;;;;;;25.50;21.10;;;8.60;99.90;;;;;;5056592;28;20485;-76
2023/03/02 12:11:40;;;;;;;23.90;19.60;;;8.50;99.90;;;;;;5054604;28;20463;-76
2023/03/02 12:14:26;;;;;;;22.87;19.20;;;8.50;99.90;;;;;;5045613;28;20548;-77
2023/03/02 12:17:05;;;;;;;26.70;20.03;;;8.50;99.90;;;;;;5052702;28;20483;-76
2023/03/02 12:19:41;;;;;;;28.20;21.20;;;8.30;99.90;;;;;;5058417;28;20456;-78
2023/03/02 12:22:12;;;;;;;24.87;20.63;;;8.20;99.90;;;;;;5054114;28;20456;-75
2023/03/02 12:24:43;;;;;;;28.00;20.97;;;8.20;99.90;;;;;;5052569;28;20447;-76
2023/03/02 12:27:26;;;;;;;22.07;19.60;;;8.10;99.90;;;;;;5054856;28;20456;-76
2023/03/02 12:30:09;;;;;;;23.67;20.10;;;8.10;99.90;;;;;;5053004;28;21160;-78
2023/03/02 12:32:38;;;;;;;26.67;22.03;;;8.10;99.90;;;;;;5056351;28;20463;-75
2023/03/02 12:35:12;;;;;;;24.33;20.40;;;8.30;99.90;;;;;;5033672;28;22156;-75
2023/03/02 12:37:47;;;;;;;25.20;21.00;;;8.50;99.90;;;;;;5054585;28;20821;-77
2023/03/02 12:40:51;;;;;;;23.37;20.87;;;8.30;99.90;;;;;;5034993;28;20472;-77
2023/03/02 12:43:41;;;;;;;24.17;21.23;;;8.50;99.90;;;;;;5053130;28;20725;-76
2023/03/02 12:46:28;;;;;;;23.13;20.43;;;8.60;99.90;;;;;;5051117;28;21579;-78
2023/03/02 12:49:13;;;;;;;23.90;21.27;;;8.70;99.90;;;;;;5054311;28;20456;-76
2023/03/02 12:51:50;;;;;;;26.37;22.70;;;8.80;99.90;;;;;;5051739;28;20479;-76
2023/03/02 12:54:20;;;;;;;23.03;19.57;;;8.90;99.90;;;;;;5054926;28;20465;-77